sensor_id;sensor_type;location;lat;lon;timestamp;P1;durP1;ratioP1;P2;durP2;ratioP2
12593;SDS011;6362;50.208;9.182;2023-05-10T00:00:39;4.18;;;2.50;;
12593;SDS011;6362;50.208;9.182;2023-05-10T00:03:05;2.70;;;2.30;;
12593;SDS011;6362;50.208;9.182;2023-05-10T00:05:31;3.03;;;2.60;;
12593;SDS011;6362;50.208;9.182;2023-05-10T00:07:56;3.25;;;2.20;;
12593;SDS011;6362;50.208;9.182;2023-05-10T00:10:22;2.30;;;2.10;;
12593;SDS011;6362;50.208;9.182;2023-05-10T00:12:47;3.38;;;2.63;;
12593;SDS011;6362;50.208;9.182;2023-05-10T00:15:13;4.13;;;2.70;;
12593;SDS011;6362;50.208;9.182;2023-05-10T00:17:39;3.13;;;2.55;;
12593;SDS011;6362;50.208;9.182;2023-05-10T00:20:04;4.88;;;2.60;;
12593;SDS011;6362;50.208;9.182;2023-05-10T00:22:31;3.97;;;2.90;;
12593;SDS011;6362;50.208;9.182;2023-05-10T00:24:57;3.22;;;2.30;;
12593;SDS011;6362;50.208;9.182;2023-05-10T00:27:22;4.32;;;2.83;;
12593;SDS011;6362;50.208;9.182;2023-05-10T00:29:48;2.40;;;1.23;;
12593;SDS011;6362;50.208;9.182;2023-05-10T00:32:13;1.98;;;1.17;;
12593;SDS011;6362;50.208;9.182;2023-05-10T00:34:39;1.42;;;1.02;;
12593;SDS011;6362;50.208;9.182;2023-05-10T00:37:04;0.80;;;0.70;;
12593;SDS011;6362;50.208;9.182;2023-05-10T00:39:30;0.45;;;0.45;;
12593;SDS011;6362;50.208;9.182;2023-05-10T00:41:56;0.73;;;0.73;;
12593;SDS011;6362;50.208;9.182;2023-05-10T00:44:21;1.10;;;0.70;;
12593;SDS011;6362;50.208;9.182;2023-05-10T00:46:47;0.73;;;0.70;;
12593;SDS011;6362;50.208;9.182;2023-05-10T00:49:14;0.88;;;0.50;;
12593;SDS011;6362;50.208;9.182;2023-05-10T00:51:40;0.75;;;0.50;;
12593;SDS011;6362;50.208;9.182;2023-05-10T00:54:07;3.40;;;0.70;;
12593;SDS011;6362;50.208;9.182;2023-05-10T00:56:34;0.80;;;0.80;;
12593;SDS011;6362;50.208;9.182;2023-05-10T00:58:59;2.63;;;0.60;;
12593;SDS011;6362;50.208;9.182;2023-05-10T01:01:25;0.52;;;0.50;;
12593;SDS011;6362;50.208;9.182;2023-05-10T01:03:50;1.58;;;0.60;;
12593;SDS011;6362;50.208;9.182;2023-05-10T01:06:16;1.65;;;0.68;;
12593;SDS011;6362;50.208;9.182;2023-05-10T01:08:41;0.63;;;0.63;;
12593;SDS011;6362;50.208;9.182;2023-05-10T01:11:07;1.08;;;0.80;;
12593;SDS011;6362;50.208;9.182;2023-05-10T01:13:33;0.70;;;0.60;;
12593;SDS011;6362;50.208;9.182;2023-05-10T01:16:01;0.98;;;0.65;;
12593;SDS011;6362;50.208;9.182;2023-05-10T01:18:28;0.82;;;0.50;;
12593;SDS011;6362;50.208;9.182;2023-05-10T01:21:04;3.20;;;0.73;;
12593;SDS011;6362;50.208;9.182;2023-05-10T01:34:58;0.43;;;0.43;;
12593;SDS011;6362;50.208;9.182;2023-05-10T01:37:33;0.60;;;0.60;;
12593;SDS011;6362;50.208;9.182;2023-05-10T01:42:55;1.08;;;0.65;;
12593;SDS011;6362;50.208;9.182;2023-05-10T01:45:27;1.75;;;0.63;;
12593;SDS011;6362;50.208;9.182;2023-05-10T01:48:06;0.40;;;0.40;;
12593;SDS011;6362;50.208;9.182;2023-05-10T01:50:36;0.40;;;0.40;;
12593;SDS011;6362;50.208;9.182;2023-05-10T01:53:07;1.30;;;0.60;;
12593;SDS011;6362;50.208;9.182;2023-05-10T01:55:45;0.95;;;0.50;;
12593;SDS011;6362;50.208;9.182;2023-05-10T01:58:13;0.88;;;0.50;;
12593;SDS011;6362;50.208;9.182;2023-05-10T02:01:00;0.50;;;0.50;;
12593;SDS011;6362;50.208;9.182;2023-05-10T02:03:28;0.35;;;0.35;;
12593;SDS011;6362;50.208;9.182;2023-05-10T02:05:57;0.50;;;0.50;;
12593;SDS011;6362;50.208;9.182;2023-05-10T02:08:23;0.60;;;0.57;;
12593;SDS011;6362;50.208;9.182;2023-05-10T02:10:51;1.17;;;0.50;;
12593;SDS011;6362;50.208;9.182;2023-05-10T02:13:20;0.82;;;0.47;;
12593;SDS011;6362;50.208;9.182;2023-05-10T02:15:48;2.45;;;0.65;;
12593;SDS011;6362;50.208;9.182;2023-05-10T02:18:14;1.48;;;0.60;;
12593;SDS011;6362;50.208;9.182;2023-05-10T02:20:41;0.45;;;0.45;;
12593;SDS011;6362;50.208;9.182;2023-05-10T02:23:10;0.55;;;0.55;;
12593;SDS011;6362;50.208;9.182;2023-05-10T02:25:36;0.68;;;0.65;;
12593;SDS011;6362;50.208;9.182;2023-05-10T02:28:04;2.85;;;0.50;;
12593;SDS011;6362;50.208;9.182;2023-05-10T02:30:32;0.63;;;0.57;;
12593;SDS011;6362;50.208;9.182;2023-05-10T02:33:00;0.50;;;0.50;;
12593;SDS011;6362;50.208;9.182;2023-05-10T02:35:27;2.67;;;1.77;;
12593;SDS011;6362;50.208;9.182;2023-05-10T02:37:53;2.15;;;0.60;;
12593;SDS011;6362;50.208;9.182;2023-05-10T02:40:19;2.80;;;0.70;;
12593;SDS011;6362;50.208;9.182;2023-05-10T02:42:48;1.60;;;0.60;;
12593;SDS011;6362;50.208;9.182;2023-05-10T02:45:18;0.60;;;0.60;;
12593;SDS011;6362;50.208;9.182;2023-05-10T02:47:48;0.73;;;0.60;;
12593;SDS011;6362;50.208;9.182;2023-05-10T02:50:13;1.05;;;0.60;;
12593;SDS011;6362;50.208;9.182;2023-05-10T02:52:40;0.68;;;0.68;;
12593;SDS011;6362;50.208;9.182;2023-05-10T02:55:16;0.50;;;0.50;;
12593;SDS011;6362;50.208;9.182;2023-05-10T02:57:48;0.70;;;0.70;;
12593;SDS011;6362;50.208;9.182;2023-05-10T03:00:18;1.30;;;0.65;;
12593;SDS011;6362;50.208;9.182;2023-05-10T03:02:44;0.88;;;0.75;;
12593;SDS011;6362;50.208;9.182;2023-05-10T03:05:09;1.60;;;0.80;;
12593;SDS011;6362;50.208;9.182;2023-05-10T03:07:35;1.45;;;0.70;;
12593;SDS011;6362;50.208;9.182;2023-05-10T03:10:00;3.83;;;0.75;;
12593;SDS011;6362;50.208;9.182;2023-05-10T03:15:44;1.35;;;0.70;;
12593;SDS011;6362;50.208;9.182;2023-05-10T03:18:21;0.65;;;0.60;;
12593;SDS011;6362;50.208;9.182;2023-05-10T03:20:51;0.85;;;0.80;;
12593;SDS011;6362;50.208;9.182;2023-05-10T03:26:00;1.13;;;1.00;;
12593;SDS011;6362;50.208;9.182;2023-05-10T03:28:26;3.97;;;0.80;;
12593;SDS011;6362;50.208;9.182;2023-05-10T03:30:56;0.40;;;0.40;;
12593;SDS011;6362;50.208;9.182;2023-05-10T03:33:22;0.80;;;0.80;;
12593;SDS011;6362;50.208;9.182;2023-05-10T03:35:47;0.95;;;0.70;;
12593;SDS011;6362;50.208;9.182;2023-05-10T03:38:13;2.50;;;0.77;;
12593;SDS011;6362;50.208;9.182;2023-05-10T03:40:38;0.90;;;0.70;;
12593;SDS011;6362;50.208;9.182;2023-05-10T03:43:04;1.33;;;0.85;;
12593;SDS011;6362;50.208;9.182;2023-05-10T03:45:29;1.05;;;0.63;;
12593;SDS011;6362;50.208;9.182;2023-05-10T03:47:56;1.55;;;0.80;;
12593;SDS011;6362;50.208;9.182;2023-05-10T03:50:22;8.25;;;0.70;;
12593;SDS011;6362;50.208;9.182;2023-05-10T03:52:47;1.40;;;0.80;;
12593;SDS011;6362;50.208;9.182;2023-05-10T03:55:13;1.13;;;1.00;;
12593;SDS011;6362;50.208;9.182;2023-05-10T03:57:38;1.30;;;0.90;;
12593;SDS011;6362;50.208;9.182;2023-05-10T04:00:04;2.13;;;0.80;;
12593;SDS011;6362;50.208;9.182;2023-05-10T04:02:30;0.98;;;0.80;;
12593;SDS011;6362;50.208;9.182;2023-05-10T04:04:56;1.65;;;0.70;;
12593;SDS011;6362;50.208;9.182;2023-05-10T04:07:21;2.30;;;0.63;;
12593;SDS011;6362;50.208;9.182;2023-05-10T04:09:47;1.05;;;0.93;;
12593;SDS011;6362;50.208;9.182;2023-05-10T04:12:12;1.13;;;1.00;;
12593;SDS011;6362;50.208;9.182;2023-05-10T04:14:38;1.70;;;0.80;;
12593;SDS011;6362;50.208;9.182;2023-05-10T04:17:03;0.60;;;0.60;;
12593;SDS011;6362;50.208;9.182;2023-05-10T04:19:29;0.60;;;0.60;;
12593;SDS011;6362;50.208;9.182;2023-05-10T04:21:55;1.35;;;1.02;;
12593;SDS011;6362;50.208;9.182;2023-05-10T04:24:21;0.80;;;0.80;;
12593;SDS011;6362;50.208;9.182;2023-05-10T04:26:46;0.63;;;0.60;;
12593;SDS011;6362;50.208;9.182;2023-05-10T04:29:12;1.30;;;0.93;;
12593;SDS011;6362;50.208;9.182;2023-05-10T04:31:37;0.82;;;0.80;;
12593;SDS011;6362;50.208;9.182;2023-05-10T04:34:03;1.08;;;0.98;;
12593;SDS011;6362;50.208;9.182;2023-05-10T04:36:28;2.35;;;1.30;;
12593;SDS011;6362;50.208;9.182;2023-05-10T04:38:54;1.10;;;0.90;;
12593;SDS011;6362;50.208;9.182;2023-05-10T04:41:19;0.95;;;0.90;;
12593;SDS011;6362;50.208;9.182;2023-05-10T04:43:45;2.10;;;1.20;;
12593;SDS011;6362;50.208;9.182;2023-05-10T04:46:14;1.25;;;1.10;;
12593;SDS011;6362;50.208;9.182;2023-05-10T04:48:39;1.10;;;1.00;;
12593;SDS011;6362;50.208;9.182;2023-05-10T04:51:04;2.45;;;1.00;;
12593;SDS011;6362;50.208;9.182;2023-05-10T04:53:31;1.25;;;0.88;;
12593;SDS011;6362;50.208;9.182;2023-05-10T04:55:57;1.17;;;0.70;;
12593;SDS011;6362;50.208;9.182;2023-05-10T04:58:23;0.88;;;0.82;;
12593;SDS011;6362;50.208;9.182;2023-05-10T05:00:48;1.20;;;1.02;;
12593;SDS011;6362;50.208;9.182;2023-05-10T05:03:14;0.73;;;0.70;;
12593;SDS011;6362;50.208;9.182;2023-05-10T05:05:39;3.60;;;1.00;;
12593;SDS011;6362;50.208;9.182;2023-05-10T05:08:05;1.20;;;1.05;;
12593;SDS011;6362;50.208;9.182;2023-05-10T05:10:31;3.00;;;1.10;;
12593;SDS011;6362;50.208;9.182;2023-05-10T05:12:56;1.05;;;0.98;;
12593;SDS011;6362;50.208;9.182;2023-05-10T05:15:21;0.60;;;0.60;;
12593;SDS011;6362;50.208;9.182;2023-05-10T05:17:47;1.77;;;0.85;;
12593;SDS011;6362;50.208;9.182;2023-05-10T05:20:12;1.23;;;0.80;;
12593;SDS011;6362;50.208;9.182;2023-05-10T05:22:38;0.98;;;0.95;;
12593;SDS011;6362;50.208;9.182;2023-05-10T05:25:04;0.98;;;0.73;;
12593;SDS011;6362;50.208;9.182;2023-05-10T05:27:30;0.90;;;0.90;;
12593;SDS011;6362;50.208;9.182;2023-05-10T05:29:56;3.33;;;1.00;;
12593;SDS011;6362;50.208;9.182;2023-05-10T05:32:22;1.67;;;0.93;;
12593;SDS011;6362;50.208;9.182;2023-05-10T05:34:48;1.40;;;1.17;;
12593;SDS011;6362;50.208;9.182;2023-05-10T05:37:15;1.70;;;1.00;;
12593;SDS011;6362;50.208;9.182;2023-05-10T05:39:41;1.10;;;1.00;;
12593;SDS011;6362;50.208;9.182;2023-05-10T05:42:07;1.75;;;1.15;;
12593;SDS011;6362;50.208;9.182;2023-05-10T05:44:33;1.20;;;1.02;;
12593;SDS011;6362;50.208;9.182;2023-05-10T05:46:59;1.10;;;0.80;;
12593;SDS011;6362;50.208;9.182;2023-05-10T05:49:24;4.30;;;1.20;;
12593;SDS011;6362;50.208;9.182;2023-05-10T05:51:49;1.55;;;0.82;;
12593;SDS011;6362;50.208;9.182;2023-05-10T05:54:15;2.00;;;1.30;;
12593;SDS011;6362;50.208;9.182;2023-05-10T05:56:41;1.17;;;1.00;;
12593;SDS011;6362;50.208;9.182;2023-05-10T05:59:06;3.50;;;1.13;;
12593;SDS011;6362;50.208;9.182;2023-05-10T06:01:32;1.17;;;1.00;;
12593;SDS011;6362;50.208;9.182;2023-05-10T06:03:57;0.98;;;0.90;;
12593;SDS011;6362;50.208;9.182;2023-05-10T06:06:23;2.55;;;1.58;;
12593;SDS011;6362;50.208;9.182;2023-05-10T06:08:48;2.75;;;1.33;;
12593;SDS011;6362;50.208;9.182;2023-05-10T06:11:13;2.35;;;1.40;;
12593;SDS011;6362;50.208;9.182;2023-05-10T06:13:39;1.23;;;1.10;;
12593;SDS011;6362;50.208;9.182;2023-05-10T06:16:05;1.48;;;1.38;;
12593;SDS011;6362;50.208;9.182;2023-05-10T06:18:30;1.88;;;1.77;;
12593;SDS011;6362;50.208;9.182;2023-05-10T06:20:56;2.15;;;1.77;;
12593;SDS011;6362;50.208;9.182;2023-05-10T06:23:22;4.80;;;2.50;;
12593;SDS011;6362;50.208;9.182;2023-05-10T06:25:48;3.10;;;1.98;;
12593;SDS011;6362;50.208;9.182;2023-05-10T06:28:13;2.97;;;1.98;;
12593;SDS011;6362;50.208;9.182;2023-05-10T06:30:39;2.42;;;1.90;;
12593;SDS011;6362;50.208;9.182;2023-05-10T06:33:04;2.33;;;1.73;;
12593;SDS011;6362;50.208;9.182;2023-05-10T06:35:29;2.58;;;2.20;;
12593;SDS011;6362;50.208;9.182;2023-05-10T06:37:57;4.10;;;1.95;;
12593;SDS011;6362;50.208;9.182;2023-05-10T06:40:22;3.17;;;2.20;;
12593;SDS011;6362;50.208;9.182;2023-05-10T06:42:47;3.22;;;2.42;;
12593;SDS011;6362;50.208;9.182;2023-05-10T06:45:13;4.25;;;2.08;;
12593;SDS011;6362;50.208;9.182;2023-05-10T06:47:40;7.15;;;2.47;;
12593;SDS011;6362;50.208;9.182;2023-05-10T06:50:06;3.03;;;2.08;;
12593;SDS011;6362;50.208;9.182;2023-05-10T06:52:33;2.30;;;1.85;;
12593;SDS011;6362;50.208;9.182;2023-05-10T06:54:59;2.63;;;1.65;;
12593;SDS011;6362;50.208;9.182;2023-05-10T06:57:25;6.90;;;2.15;;
12593;SDS011;6362;50.208;9.182;2023-05-10T06:59:50;3.13;;;2.05;;
12593;SDS011;6362;50.208;9.182;2023-05-10T07:02:17;3.70;;;2.03;;
12593;SDS011;6362;50.208;9.182;2023-05-10T07:04:42;2.65;;;1.77;;
12593;SDS011;6362;50.208;9.182;2023-05-10T07:07:08;1.58;;;1.48;;
12593;SDS011;6362;50.208;9.182;2023-05-10T07:09:33;3.92;;;1.85;;
12593;SDS011;6362;50.208;9.182;2023-05-10T07:11:59;4.18;;;2.40;;
12593;SDS011;6362;50.208;9.182;2023-05-10T07:14:24;2.35;;;1.77;;
12593;SDS011;6362;50.208;9.182;2023-05-10T07:16:50;3.08;;;2.13;;
12593;SDS011;6362;50.208;9.182;2023-05-10T07:19:15;6.57;;;2.20;;
12593;SDS011;6362;50.208;9.182;2023-05-10T07:21:41;4.00;;;1.88;;
12593;SDS011;6362;50.208;9.182;2023-05-10T07:24:08;4.40;;;2.55;;
12593;SDS011;6362;50.208;9.182;2023-05-10T07:26:33;3.53;;;2.38;;
12593;SDS011;6362;50.208;9.182;2023-05-10T07:29:04;3.70;;;2.28;;
12593;SDS011;6362;50.208;9.182;2023-05-10T07:31:30;6.25;;;2.15;;
12593;SDS011;6362;50.208;9.182;2023-05-10T07:33:56;4.10;;;2.13;;
12593;SDS011;6362;50.208;9.182;2023-05-10T07:36:25;3.80;;;2.08;;
12593;SDS011;6362;50.208;9.182;2023-05-10T07:38:50;2.78;;;2.08;;
12593;SDS011;6362;50.208;9.182;2023-05-10T07:41:16;2.38;;;1.77;;
12593;SDS011;6362;50.208;9.182;2023-05-10T07:43:41;2.45;;;2.00;;
12593;SDS011;6362;50.208;9.182;2023-05-10T07:51:10;3.97;;;2.10;;
12593;SDS011;6362;50.208;9.182;2023-05-10T07:53:37;3.65;;;2.20;;
12593;SDS011;6362;50.208;9.182;2023-05-10T07:56:19;3.33;;;2.00;;
12593;SDS011;6362;50.208;9.182;2023-05-10T07:58:48;5.28;;;1.85;;
12593;SDS011;6362;50.208;9.182;2023-05-10T08:01:14;3.78;;;1.90;;
12593;SDS011;6362;50.208;9.182;2023-05-10T08:03:39;3.90;;;1.65;;
12593;SDS011;6362;50.208;9.182;2023-05-10T08:06:05;4.40;;;1.90;;
12593;SDS011;6362;50.208;9.182;2023-05-10T08:08:31;4.15;;;1.83;;
12593;SDS011;6362;50.208;9.182;2023-05-10T08:10:56;4.97;;;2.47;;
12593;SDS011;6362;50.208;9.182;2023-05-10T08:13:21;5.93;;;2.58;;
12593;SDS011;6362;50.208;9.182;2023-05-10T08:15:47;2.55;;;1.85;;
12593;SDS011;6362;50.208;9.182;2023-05-10T08:18:12;3.45;;;1.95;;
12593;SDS011;6362;50.208;9.182;2023-05-10T08:20:38;4.93;;;2.20;;
12593;SDS011;6362;50.208;9.182;2023-05-10T08:23:04;3.22;;;1.83;;
12593;SDS011;6362;50.208;9.182;2023-05-10T08:25:29;2.72;;;1.80;;
12593;SDS011;6362;50.208;9.182;2023-05-10T08:27:55;3.80;;;2.08;;
12593;SDS011;6362;50.208;9.182;2023-05-10T08:30:20;4.00;;;2.42;;
12593;SDS011;6362;50.208;9.182;2023-05-10T08:32:45;9.57;;;2.58;;
12593;SDS011;6362;50.208;9.182;2023-05-10T08:35:11;3.63;;;2.20;;
12593;SDS011;6362;50.208;9.182;2023-05-10T08:37:36;4.15;;;2.00;;
12593;SDS011;6362;50.208;9.182;2023-05-10T08:40:02;3.90;;;2.00;;
12593;SDS011;6362;50.208;9.182;2023-05-10T08:42:28;2.55;;;1.73;;
12593;SDS011;6362;50.208;9.182;2023-05-10T08:44:56;3.92;;;2.00;;
12593;SDS011;6362;50.208;9.182;2023-05-10T08:47:22;3.40;;;2.25;;
12593;SDS011;6362;50.208;9.182;2023-05-10T08:49:48;4.13;;;2.00;;
12593;SDS011;6362;50.208;9.182;2023-05-10T08:52:16;5.57;;;2.30;;
12593;SDS011;6362;50.208;9.182;2023-05-10T08:54:42;6.45;;;2.00;;
12593;SDS011;6362;50.208;9.182;2023-05-10T08:57:08;3.63;;;1.80;;
12593;SDS011;6362;50.208;9.182;2023-05-10T08:59:34;2.72;;;1.27;;
12593;SDS011;6362;50.208;9.182;2023-05-10T09:02:00;5.25;;;2.20;;
12593;SDS011;6362;50.208;9.182;2023-05-10T09:04:26;3.20;;;1.95;;
12593;SDS011;6362;50.208;9.182;2023-05-10T09:06:53;3.40;;;1.67;;
12593;SDS011;6362;50.208;9.182;2023-05-10T09:09:19;5.15;;;1.70;;
12593;SDS011;6362;50.208;9.182;2023-05-10T09:11:44;4.68;;;1.75;;
12593;SDS011;6362;50.208;9.182;2023-05-10T09:14:11;1.90;;;1.60;;
12593;SDS011;6362;50.208;9.182;2023-05-10T09:16:38;2.80;;;1.58;;
12593;SDS011;6362;50.208;9.182;2023-05-10T09:19:05;4.93;;;1.98;;
12593;SDS011;6362;50.208;9.182;2023-05-10T09:21:32;3.97;;;1.60;;
12593;SDS011;6362;50.208;9.182;2023-05-10T09:24:02;2.17;;;1.60;;
12593;SDS011;6362;50.208;9.182;2023-05-10T09:26:29;2.25;;;1.50;;
12593;SDS011;6362;50.208;9.182;2023-05-10T09:28:55;2.28;;;1.48;;
12593;SDS011;6362;50.208;9.182;2023-05-10T09:31:22;3.28;;;1.90;;
12593;SDS011;6362;50.208;9.182;2023-05-10T09:33:49;5.63;;;1.50;;
12593;SDS011;6362;50.208;9.182;2023-05-10T09:36:15;5.15;;;2.05;;
12593;SDS011;6362;50.208;9.182;2023-05-10T09:38:47;3.53;;;1.70;;
12593;SDS011;6362;50.208;9.182;2023-05-10T09:41:21;4.05;;;1.83;;
12593;SDS011;6362;50.208;9.182;2023-05-10T09:43:47;3.03;;;1.37;;
12593;SDS011;6362;50.208;9.182;2023-05-10T09:46:14;3.13;;;1.85;;
12593;SDS011;6362;50.208;9.182;2023-05-10T09:48:41;2.13;;;1.38;;
12593;SDS011;6362;50.208;9.182;2023-05-10T09:51:08;5.70;;;2.03;;
12593;SDS011;6362;50.208;9.182;2023-05-10T09:53:33;3.22;;;1.50;;
12593;SDS011;6362;50.208;9.182;2023-05-10T09:55:58;5.55;;;1.98;;
12593;SDS011;6362;50.208;9.182;2023-05-10T09:58:24;1.88;;;1.40;;
12593;SDS011;6362;50.208;9.182;2023-05-10T10:00:50;2.00;;;1.40;;
12593;SDS011;6362;50.208;9.182;2023-05-10T10:03:17;2.97;;;1.55;;
12593;SDS011;6362;50.208;9.182;2023-05-10T10:05:45;6.18;;;1.52;;
12593;SDS011;6362;50.208;9.182;2023-05-10T10:08:11;3.83;;;1.80;;
12593;SDS011;6362;50.208;9.182;2023-05-10T10:10:38;4.15;;;1.95;;
12593;SDS011;6362;50.208;9.182;2023-05-10T10:13:05;2.10;;;1.33;;
12593;SDS011;6362;50.208;9.182;2023-05-10T10:15:31;3.53;;;1.83;;
12593;SDS011;6362;50.208;9.182;2023-05-10T10:17:58;2.83;;;1.48;;
12593;SDS011;6362;50.208;9.182;2023-05-10T10:20:24;1.25;;;1.15;;
12593;SDS011;6362;50.208;9.182;2023-05-10T10:22:50;2.67;;;1.65;;
12593;SDS011;6362;50.208;9.182;2023-05-10T10:25:16;3.38;;;2.22;;
12593;SDS011;6362;50.208;9.182;2023-05-10T10:35:48;5.55;;;1.55;;
12593;SDS011;6362;50.208;9.182;2023-05-10T10:38:15;2.60;;;1.25;;
12593;SDS011;6362;50.208;9.182;2023-05-10T10:40:42;4.97;;;1.70;;
12593;SDS011;6362;50.208;9.182;2023-05-10T10:43:23;5.97;;;2.10;;
12593;SDS011;6362;50.208;9.182;2023-05-10T10:46:09;3.20;;;1.75;;
12593;SDS011;6362;50.208;9.182;2023-05-10T10:48:38;5.47;;;1.40;;
12593;SDS011;6362;50.208;9.182;2023-05-10T10:51:04;2.70;;;1.50;;
12593;SDS011;6362;50.208;9.182;2023-05-10T10:53:30;2.60;;;0.88;;
12593;SDS011;6362;50.208;9.182;2023-05-10T10:56:08;3.33;;;1.10;;
12593;SDS011;6362;50.208;9.182;2023-05-10T10:58:36;7.53;;;1.45;;
12593;SDS011;6362;50.208;9.182;2023-05-10T11:01:13;2.92;;;1.40;;
12593;SDS011;6362;50.208;9.182;2023-05-10T11:03:41;5.55;;;1.67;;
12593;SDS011;6362;50.208;9.182;2023-05-10T11:06:28;3.53;;;1.70;;
12593;SDS011;6362;50.208;9.182;2023-05-10T11:08:58;2.78;;;1.40;;
12593;SDS011;6362;50.208;9.182;2023-05-10T11:11:30;2.63;;;1.40;;
12593;SDS011;6362;50.208;9.182;2023-05-10T11:13:55;3.20;;;1.70;;
12593;SDS011;6362;50.208;9.182;2023-05-10T11:16:28;7.13;;;2.30;;
12593;SDS011;6362;50.208;9.182;2023-05-10T11:19:07;5.20;;;2.28;;
12593;SDS011;6362;50.208;9.182;2023-05-10T11:21:44;3.13;;;2.40;;
12593;SDS011;6362;50.208;9.182;2023-05-10T11:24:13;4.78;;;1.90;;
12593;SDS011;6362;50.208;9.182;2023-05-10T11:26:40;3.00;;;2.20;;
12593;SDS011;6362;50.208;9.182;2023-05-10T11:29:05;7.30;;;2.28;;
12593;SDS011;6362;50.208;9.182;2023-05-10T11:31:31;3.75;;;1.80;;
12593;SDS011;6362;50.208;9.182;2023-05-10T11:33:57;2.92;;;1.90;;
12593;SDS011;6362;50.208;9.182;2023-05-10T11:36:25;7.22;;;1.95;;
12593;SDS011;6362;50.208;9.182;2023-05-10T11:38:52;3.95;;;1.73;;
12593;SDS011;6362;50.208;9.182;2023-05-10T11:41:19;4.60;;;1.90;;
12593;SDS011;6362;50.208;9.182;2023-05-10T11:43:49;4.75;;;1.95;;
12593;SDS011;6362;50.208;9.182;2023-05-10T11:46:16;2.65;;;1.58;;
12593;SDS011;6362;50.208;9.182;2023-05-10T11:48:45;2.00;;;1.15;;
12593;SDS011;6362;50.208;9.182;2023-05-10T11:51:15;2.65;;;1.48;;
12593;SDS011;6362;50.208;9.182;2023-05-10T11:53:44;1.13;;;0.90;;
12593;SDS011;6362;50.208;9.182;2023-05-10T11:56:10;4.10;;;1.17;;
12593;SDS011;6362;50.208;9.182;2023-05-10T11:58:37;2.17;;;0.90;;
12593;SDS011;6362;50.208;9.182;2023-05-10T12:01:04;2.53;;;1.10;;
12593;SDS011;6362;50.208;9.182;2023-05-10T12:03:31;2.35;;;1.30;;
12593;SDS011;6362;50.208;9.182;2023-05-10T12:05:58;2.00;;;1.13;;
12593;SDS011;6362;50.208;9.182;2023-05-10T12:08:25;2.03;;;0.80;;
12593;SDS011;6362;50.208;9.182;2023-05-10T12:10:51;3.17;;;1.23;;
12593;SDS011;6362;50.208;9.182;2023-05-10T12:13:18;1.35;;;1.00;;
12593;SDS011;6362;50.208;9.182;2023-05-10T12:15:46;1.35;;;0.90;;
12593;SDS011;6362;50.208;9.182;2023-05-10T12:18:12;1.45;;;0.82;;
12593;SDS011;6362;50.208;9.182;2023-05-10T12:20:39;1.83;;;0.80;;
12593;SDS011;6362;50.208;9.182;2023-05-10T12:23:05;0.95;;;0.60;;
12593;SDS011;6362;50.208;9.182;2023-05-10T12:25:33;0.95;;;0.65;;
12593;SDS011;6362;50.208;9.182;2023-05-10T12:28:00;0.77;;;0.60;;
12593;SDS011;6362;50.208;9.182;2023-05-10T12:30:29;0.70;;;0.63;;
12593;SDS011;6362;50.208;9.182;2023-05-10T12:33:02;0.82;;;0.60;;
12593;SDS011;6362;50.208;9.182;2023-05-10T12:35:51;1.30;;;0.73;;
12593;SDS011;6362;50.208;9.182;2023-05-10T12:38:28;3.03;;;1.40;;
12593;SDS011;6362;50.208;9.182;2023-05-10T12:41:00;1.95;;;0.77;;
12593;SDS011;6362;50.208;9.182;2023-05-10T12:43:27;1.98;;;0.80;;
12593;SDS011;6362;50.208;9.182;2023-05-10T12:45:53;1.65;;;0.60;;
12593;SDS011;6362;50.208;9.182;2023-05-10T12:48:19;1.27;;;0.77;;
12593;SDS011;6362;50.208;9.182;2023-05-10T12:50:45;1.60;;;0.93;;
12593;SDS011;6362;50.208;9.182;2023-05-10T12:53:11;2.05;;;0.70;;
12593;SDS011;6362;50.208;9.182;2023-05-10T12:55:38;0.70;;;0.68;;
12593;SDS011;6362;50.208;9.182;2023-05-10T12:58:04;1.08;;;0.77;;
12593;SDS011;6362;50.208;9.182;2023-05-10T13:00:29;1.05;;;0.70;;
12593;SDS011;6362;50.208;9.182;2023-05-10T13:02:55;2.75;;;0.73;;
12593;SDS011;6362;50.208;9.182;2023-05-10T13:05:20;2.22;;;0.90;;
12593;SDS011;6362;50.208;9.182;2023-05-10T13:07:46;3.70;;;0.80;;
12593;SDS011;6362;50.208;9.182;2023-05-10T13:10:11;1.75;;;0.90;;
12593;SDS011;6362;50.208;9.182;2023-05-10T13:12:36;1.05;;;0.80;;
12593;SDS011;6362;50.208;9.182;2023-05-10T13:15:02;2.53;;;0.98;;
12593;SDS011;6362;50.208;9.182;2023-05-10T13:17:28;2.85;;;0.88;;
12593;SDS011;6362;50.208;9.182;2023-05-10T13:19:53;1.67;;;0.98;;
12593;SDS011;6362;50.208;9.182;2023-05-10T13:22:19;1.95;;;0.70;;
12593;SDS011;6362;50.208;9.182;2023-05-10T13:24:44;1.58;;;0.80;;
12593;SDS011;6362;50.208;9.182;2023-05-10T13:27:10;1.30;;;0.70;;
12593;SDS011;6362;50.208;9.182;2023-05-10T13:29:35;2.45;;;0.57;;
12593;SDS011;6362;50.208;9.182;2023-05-10T13:32:01;0.73;;;0.57;;
12593;SDS011;6362;50.208;9.182;2023-05-10T13:34:26;0.40;;;0.40;;
12593;SDS011;6362;50.208;9.182;2023-05-10T13:36:52;1.13;;;0.40;;
12593;SDS011;6362;50.208;9.182;2023-05-10T13:39:18;2.15;;;0.80;;
12593;SDS011;6362;50.208;9.182;2023-05-10T13:41:45;1.75;;;0.50;;
12593;SDS011;6362;50.208;9.182;2023-05-10T13:44:11;1.48;;;0.60;;
12593;SDS011;6362;50.208;9.182;2023-05-10T13:46:37;1.25;;;0.43;;
12593;SDS011;6362;50.208;9.182;2023-05-10T13:49:03;0.60;;;0.57;;
12593;SDS011;6362;50.208;9.182;2023-05-10T13:51:29;5.43;;;0.82;;
12593;SDS011;6362;50.208;9.182;2023-05-10T13:53:54;2.33;;;0.57;;
12593;SDS011;6362;50.208;9.182;2023-05-10T13:56:20;2.90;;;0.60;;
12593;SDS011;6362;50.208;9.182;2023-05-10T13:58:45;0.95;;;0.65;;
12593;SDS011;6362;50.208;9.182;2023-05-10T14:01:11;1.50;;;0.50;;
12593;SDS011;6362;50.208;9.182;2023-05-10T14:03:37;1.23;;;0.50;;
12593;SDS011;6362;50.208;9.182;2023-05-10T14:06:02;1.15;;;0.60;;
12593;SDS011;6362;50.208;9.182;2023-05-10T14:08:28;2.88;;;0.40;;
12593;SDS011;6362;50.208;9.182;2023-05-10T14:10:53;1.85;;;0.57;;
12593;SDS011;6362;50.208;9.182;2023-05-10T14:13:21;1.88;;;0.70;;
12593;SDS011;6362;50.208;9.182;2023-05-10T14:15:46;2.45;;;0.60;;
12593;SDS011;6362;50.208;9.182;2023-05-10T14:18:12;0.88;;;0.60;;
12593;SDS011;6362;50.208;9.182;2023-05-10T14:20:37;3.10;;;2.28;;
12593;SDS011;6362;50.208;9.182;2023-05-10T14:23:02;1.58;;;0.63;;
12593;SDS011;6362;50.208;9.182;2023-05-10T14:25:28;2.97;;;0.60;;
12593;SDS011;6362;50.208;9.182;2023-05-10T14:27:53;2.83;;;0.77;;
12593;SDS011;6362;50.208;9.182;2023-05-10T14:30:19;3.20;;;0.98;;
12593;SDS011;6362;50.208;9.182;2023-05-10T14:32:45;4.90;;;1.00;;
12593;SDS011;6362;50.208;9.182;2023-05-10T14:35:11;2.83;;;0.70;;
12593;SDS011;6362;50.208;9.182;2023-05-10T14:37:37;1.10;;;0.70;;
12593;SDS011;6362;50.208;9.182;2023-05-10T14:40:03;3.08;;;0.80;;
12593;SDS011;6362;50.208;9.182;2023-05-10T14:42:29;1.95;;;0.70;;
12593;SDS011;6362;50.208;9.182;2023-05-10T14:44:56;1.67;;;0.60;;
12593;SDS011;6362;50.208;9.182;2023-05-10T14:47:21;3.38;;;0.80;;
12593;SDS011;6362;50.208;9.182;2023-05-10T14:49:47;0.85;;;0.60;;
12593;SDS011;6362;50.208;9.182;2023-05-10T14:52:12;2.22;;;0.98;;
12593;SDS011;6362;50.208;9.182;2023-05-10T14:54:39;2.17;;;0.80;;
12593;SDS011;6362;50.208;9.182;2023-05-10T14:57:05;6.93;;;1.65;;
12593;SDS011;6362;50.208;9.182;2023-05-10T14:59:31;2.65;;;0.68;;
12593;SDS011;6362;50.208;9.182;2023-05-10T15:01:56;2.63;;;0.50;;
12593;SDS011;6362;50.208;9.182;2023-05-10T15:04:22;3.83;;;0.60;;
12593;SDS011;6362;50.208;9.182;2023-05-10T15:06:47;2.22;;;0.60;;
12593;SDS011;6362;50.208;9.182;2023-05-10T15:09:13;1.90;;;0.80;;
12593;SDS011;6362;50.208;9.182;2023-05-10T15:11:38;2.28;;;0.60;;
12593;SDS011;6362;50.208;9.182;2023-05-10T15:14:04;2.17;;;0.60;;
12593;SDS011;6362;50.208;9.182;2023-05-10T15:16:29;0.93;;;0.50;;
12593;SDS011;6362;50.208;9.182;2023-05-10T15:18:55;2.45;;;0.60;;
12593;SDS011;6362;50.208;9.182;2023-05-10T15:21:20;0.35;;;0.35;;
12593;SDS011;6362;50.208;9.182;2023-05-10T15:23:46;0.52;;;0.50;;
12593;SDS011;6362;50.208;9.182;2023-05-10T15:26:11;3.97;;;0.60;;
12593;SDS011;6362;50.208;9.182;2023-05-10T15:28:37;1.17;;;0.50;;
12593;SDS011;6362;50.208;9.182;2023-05-10T15:31:02;2.03;;;0.65;;